Time;durP1;ratioP1;P1;durP2;ratioP2;P2;SDS_P1;SDS_P2;PMS_P1;PMS_P2;Temp;Humidity;BMP_temperature;BMP_pressure;BME280_temperature;BME280_humidity;BME280_pressure;Samples;Min_cycle;Max_cycle;Signal;HPM_P1;HPM_P2
2022/09/30 00:01:03;;;;;;;29.33;10.98;;;;;;;9.66;100.00;100735.09;5012390;28;20374;-36
2022/09/30 00:03:28;;;;;;;26.27;11.55;;;;;;;9.63;100.00;100734.59;4994414;28;20073;-36
2022/09/30 00:06:02;;;;;;;26.08;10.50;;;;;;;9.60;100.00;100732.28;5012071;28;20037;-37
2022/09/30 00:08:28;;;;;;;24.13;10.20;;;;;;;9.56;100.00;100725.59;5011760;28;20046;-37
2022/09/30 00:11:04;;;;;;;25.00;10.18;;;;;;;9.54;100.00;100731.13;4994546;28;20076;-36
2022/09/30 00:13:31;;;;;;;20.83;10.02;;;;;;;9.53;100.00;100734.84;5012304;28;20034;-37
2022/09/30 00:15:57;;;;;;;23.95;10.23;;;;;;;9.50;100.00;100734.34;4994743;28;20029;-37
2022/09/30 00:18:22;;;;;;;23.33;9.35;;;;;;;9.50;100.00;100745.09;5011868;28;20109;-37
2022/09/30 00:20:47;;;;;;;18.67;9.50;;;;;;;9.48;100.00;100742.59;5012139;28;20026;-36
2022/09/30 00:23:13;;;;;;;22.63;9.73;;;;;;;9.47;100.00;100732.84;5011892;28;20029;-37
2022/09/30 00:25:38;;;;;;;24.33;9.98;;;;;;;9.47;100.00;100734.72;5012192;28;20117;-36
2022/09/30 00:28:06;;;;;;;22.35;10.70;;;;;;;9.45;100.00;100727.69;5011994;28;20033;-37
2022/09/30 00:30:32;;;;;;;23.27;10.88;;;;;;;9.42;100.00;100725.31;4994355;28;20481;-37
2022/09/30 00:32:57;;;;;;;21.75;11.25;;;;;;;9.41;100.00;100725.50;5012324;28;20075;-36
2022/09/30 00:35:24;;;;;;;22.35;10.77;;;;;;;9.37;100.00;100727.72;5011945;28;20507;-36
2022/09/30 00:37:49;;;;;;;24.88;11.45;;;;;;;9.32;100.00;100727.41;4994262;28;20083;-37
2022/09/30 00:40:15;;;;;;;20.92;10.85;;;;;;;9.31;100.00;100725.72;5011685;28;20113;-37
2022/09/30 00:42:40;;;;;;;22.65;10.30;;;;;;;9.27;100.00;100727.13;4997157;28;20192;-38
2022/09/30 00:45:09;;;;;;;28.38;11.40;;;;;;;9.22;100.00;100729.50;5011698;28;20030;-37
2022/09/30 00:47:42;;;;;;;24.45;11.95;;;;;;;9.18;100.00;100725.47;4994175;28;20400;-37
2022/09/30 00:50:20;;;;;;;27.00;12.40;;;;;;;9.14;100.00;100735.72;5011250;28;20129;-37
2022/09/30 00:52:52;;;;;;;28.25;12.35;;;;;;;9.11;100.00;100729.84;5011612;28;20026;-37
2022/09/30 00:55:39;;;;;;;23.67;11.23;;;;;;;9.06;100.00;100726.84;5011380;28;20034;-37
2022/09/30 00:58:07;;;;;;;27.80;11.05;;;;;;;8.94;100.00;100727.25;5008801;28;20033;-36
2022/09/30 01:00:33;;;;;;;24.48;11.73;;;;;;;8.91;100.00;100718.72;4991977;28;20435;-37
2022/09/30 01:02:58;;;;;;;21.52;10.90;;;;;;;8.85;100.00;100722.94;5001254;28;20072;-37
2022/09/30 01:05:25;;;;;;;28.15;11.48;;;;;;;8.82;100.00;100714.38;4993566;28;20518;-36
2022/09/30 01:07:51;;;;;;;25.08;11.30;;;;;;;8.76;100.00;100715.91;5010405;28;20133;-37
2022/09/30 01:10:16;;;;;;;30.33;11.38;;;;;;;8.71;100.00;100723.63;4993247;28;20510;-36
2022/09/30 01:12:42;;;;;;;22.00;9.85;;;;;;;8.70;100.00;100730.03;5010790;28;20025;-36
2022/09/30 01:15:08;;;;;;;26.85;9.93;;;;;;;8.68;100.00;100740.09;5010794;28;20475;-35
2022/09/30 01:17:58;;;;;;;22.45;9.93;;;;;;;8.67;100.00;100733.06;4993540;28;20030;-37
2022/09/30 01:20:45;;;;;;;22.42;9.95;;;;;;;8.65;100.00;100729.72;4977005;28;20789;-35
2022/09/30 01:23:35;;;;;;;20.30;10.90;;;;;;;8.63;100.00;100731.72;4991928;28;20030;-37
2022/09/30 01:26:12;;;;;;;27.92;11.52;;;;;;;8.63;100.00;100739.75;4987265;28;20037;-36
2022/09/30 01:28:59;;;;;;;26.08;11.27;;;;;;;8.62;100.00;100740.78;5010813;28;20026;-37
2022/09/30 01:31:42;;;;;;;28.02;10.13;;;;;;;8.61;100.00;100734.59;5011216;28;20073;-36
2022/09/30 01:34:24;;;;;;;24.15;10.70;;;;;;;8.56;100.00;100737.78;5010865;28;20036;-37
2022/09/30 01:37:20;;;;;;;23.25;10.18;;;;;;;8.54;100.00;100739.78;5010815;28;20034;-37
2022/09/30 01:40:06;;;;;;;32.55;10.07;;;;;;;8.50;100.00;100732.25;5010736;28;20057;-36
2022/09/30 01:42:59;;;;;;;19.35;10.18;;;;;;;8.45;100.00;100730.09;4990151;28;20088;-36
2022/09/30 01:45:30;;;;;;;23.00;9.95;;;;;;;8.39;100.00;100725.41;5007684;28;20033;-36
2022/09/30 01:48:07;;;;;;;27.50;9.85;;;;;;;8.33;100.00;100728.75;5010620;28;20489;-36
2022/09/30 01:50:48;;;;;;;27.55;9.10;;;;;;;8.32;100.00;100719.00;4993001;28;20172;-37
2022/09/30 01:53:23;;;;;;;23.00;9.15;;;;;;;8.30;100.00;100716.50;4993227;28;20036;-36
2022/09/30 01:55:57;;;;;;;17.90;8.73;;;;;;;8.26;100.00;100714.34;5010387;28;20363;-37
2022/09/30 01:58:52;;;;;;;21.20;10.07;;;;;;;8.23;100.00;100714.69;5010659;28;20377;-38
2022/09/30 02:01:24;;;;;;;16.48;9.05;;;;;;;8.20;100.00;100710.50;4986572;28;20041;-36
2022/09/30 02:03:57;;;;;;;18.25;9.35;;;;;;;8.19;100.00;100711.50;4992810;28;20105;-35
2022/09/30 02:06:36;;;;;;;18.00;9.18;;;;;;;8.14;100.00;100714.69;5043078;23;20038;-40
2022/09/30 02:09:13;;;;;;;18.13;8.68;;;;;;;8.11;100.00;100711.53;4995584;28;20033;-39
2022/09/30 02:11:39;;;;;;;29.33;10.40;;;;;;;8.11;100.00;100723.06;4997385;28;20023;-39
2022/09/30 02:14:23;;;;;;;23.73;8.82;;;;;;;8.08;100.00;100728.78;5001694;28;20030;-39
2022/09/30 02:17:01;;;;;;;21.70;10.27;;;;;;;8.07;100.00;100727.09;4998497;28;20081;-39
2022/09/30 02:19:30;;;;;;;21.02;9.82;;;;;;;8.07;100.00;100720.88;5002253;28;20101;-39
2022/09/30 02:22:03;;;;;;;20.52;10.15;;;;;;;8.06;100.00;100729.94;5011875;28;20023;-39
2022/09/30 02:24:35;;;;;;;17.83;8.15;;;;;;;8.05;100.00;100728.25;5002050;28;20032;-39
2022/09/30 02:27:03;;;;;;;21.10;9.52;;;;;;;8.05;100.00;100737.13;4995837;28;20035;-41
2022/09/30 02:29:33;;;;;;;18.17;8.50;;;;;;;8.06;100.00;100741.50;5001122;28;20065;-40
2022/09/30 02:32:05;;;;;;;21.88;9.30;;;;;;;8.03;100.00;100747.22;5002368;28;20022;-39
2022/09/30 02:34:38;;;;;;;22.35;8.52;;;;;;;8.04;100.00;100748.03;5002589;28;20038;-41
2022/09/30 02:37:09;;;;;;;18.90;8.50;;;;;;;8.03;100.00;100747.22;5018153;28;20042;-39
2022/09/30 02:39:54;;;;;;;24.02;8.82;;;;;;;8.03;100.00;100747.22;5002663;28;20018;-40
2022/09/30 02:42:23;;;;;;;18.60;9.02;;;;;;;8.01;100.00;100741.16;5019173;28;20022;-40
2022/09/30 02:44:50;;;;;;;22.95;9.95;;;;;;;8.00;100.00;100747.50;5005774;28;20065;-40
2022/09/30 02:47:57;;;;;;;24.75;8.90;;;;;;;7.96;100.00;100732.78;5001861;28;20026;-39
2022/09/30 02:50:31;;;;;;;17.98;8.55;;;;;;;7.91;100.00;100725.25;4956704;28;20115;-40
2022/09/30 02:53:18;;;;;;;19.35;8.55;;;;;;;7.89;100.00;100732.59;5018981;28;20034;-40
2022/09/30 02:56:20;;;;;;;17.85;8.82;;;;;;;7.88;100.00;100727.44;5018905;28;20026;-40
2022/09/30 02:58:46;;;;;;;18.75;8.63;;;;;;;7.83;100.00;100725.25;5018895;28;20090;-40
2022/09/30 03:01:14;;;;;;;21.13;9.15;;;;;;;7.80;100.00;100728.25;5019127;28;20030;-39
2022/09/30 03:03:49;;;;;;;17.83;8.45;;;;;;;7.81;100.00;100734.47;5018560;28;20038;-39
2022/09/30 03:06:15;;;;;;;24.25;8.60;;;;;;;7.81;100.00;100743.31;5001311;28;20026;-40
2022/09/30 03:08:40;;;;;;;20.85;8.98;;;;;;;7.80;100.00;100743.50;5017718;28;20051;-38
2022/09/30 03:11:06;;;;;;;17.75;8.77;;;;;;;7.80;100.00;100743.50;5018815;28;20122;-39
2022/09/30 03:13:47;;;;;;;17.25;8.38;;;;;;;7.79;100.00;100744.50;5001503;28;20027;-40
2022/09/30 03:16:27;;;;;;;22.80;9.07;;;;;;;7.76;100.00;100742.16;5018016;28;20061;-39
2022/09/30 03:18:58;;;;;;;21.02;8.70;;;;;;;7.76;100.00;100750.19;5001298;28;20037;-40
2022/09/30 03:21:45;;;;;;;21.60;8.55;;;;;;;7.73;100.00;100750.53;5000958;28;20026;-40
2022/09/30 03:24:21;;;;;;;17.13;8.50;;;;;;;7.74;100.00;100765.59;5015423;28;20039;-40
2022/09/30 03:26:56;;;;;;;20.75;8.88;;;;;;;7.73;100.00;100763.91;4997956;28;20034;-39
2022/09/30 03:30:02;;;;;;;19.90;8.50;;;;;;;7.74;100.00;100765.59;5017669;28;20030;-40
2022/09/30 03:32:34;;;;;;;21.08;8.85;;;;;;;7.75;100.00;100768.13;4962846;28;20070;-40
2022/09/30 03:35:18;;;;;;;20.27;9.20;;;;;;;7.76;100.00;100768.94;5001085;28;20031;-39
2022/09/30 03:38:01;;;;;;;22.48;9.52;;;;;;;7.78;100.00;100772.31;5017832;28;20034;-41
2022/09/30 03:40:45;;;;;;;17.67;9.98;;;;;;;7.75;100.00;100773.47;5000990;28;20097;-40
2022/09/30 03:43:16;;;;;;;20.13;9.60;;;;;;;7.76;100.00;100771.63;5016893;28;20032;-40
2022/09/30 03:45:55;;;;;;;21.25;8.95;;;;;;;7.74;100.00;100768.25;5018187;28;20027;-39
2022/09/30 03:48:22;;;;;;;23.13;10.20;;;;;;;7.73;100.00;100778.16;5017290;28;20038;-40
2022/09/30 03:50:47;;;;;;;22.67;10.55;;;;;;;7.72;100.00;100775.66;5000669;28;20046;-40
2022/09/30 03:53:13;;;;;;;30.60;10.45;;;;;;;7.69;100.00;100782.19;5000502;28;20030;-40
2022/09/30 03:55:50;;;;;;;25.88;10.43;;;;;;;7.67;100.00;100779.66;5017605;28;20042;-40
2022/09/30 03:58:18;;;;;;;22.65;10.13;;;;;;;7.64;100.00;100784.50;5016405;28;20026;-39
2022/09/30 04:00:48;;;;;;;32.58;11.15;;;;;;;7.63;100.00;100777.44;4986168;28;20018;-40
2022/09/30 04:03:14;;;;;;;22.83;10.60;;;;;;;7.63;100.00;100780.97;5017333;28;20037;-39
2022/09/30 04:05:39;;;;;;;23.10;11.15;;;;;;;7.62;100.00;100787.34;4999858;28;20093;-40
2022/09/30 04:08:04;;;;;;;25.45;12.00;;;;;;;7.64;100.00;100787.19;4985982;28;20031;-40
2022/09/30 04:10:30;;;;;;;26.35;11.52;;;;;;;7.64;100.00;100779.97;5010681;28;20049;-40
2022/09/30 04:12:56;;;;;;;27.70;12.55;;;;;;;7.62;100.00;100778.47;5013514;28;20049;-41
2022/09/30 04:15:21;;;;;;;26.92;11.32;;;;;;;7.63;100.00;100778.28;5007661;28;20038;-40
2022/09/30 04:17:47;;;;;;;22.23;10.50;;;;;;;7.59;100.00;100782.31;5011410;28;20046;-40
2022/09/30 04:20:12;;;;;;;28.00;12.05;;;;;;;7.61;100.00;100780.31;5012788;28;20010;-38
2022/09/30 04:22:37;;;;;;;19.75;11.10;;;;;;;7.60;100.00;100783.97;5009825;28;20035;-40
2022/09/30 04:25:03;;;;;;;24.23;11.95;;;;;;;7.59;100.00;100794.88;5011178;28;20014;-40
2022/09/30 04:27:29;;;;;;;27.42;12.00;;;;;;;7.60;100.00;100783.16;5009359;28;20037;-40
2022/09/30 04:29:54;;;;;;;28.90;12.85;;;;;;;7.58;100.00;100780.66;5011524;28;20030;-40
2022/09/30 04:32:21;;;;;;;34.65;15.35;;;;;;;7.55;100.00;100780.94;5012331;28;20329;-39
2022/09/30 04:34:47;;;;;;;26.10;14.07;;;;;;;7.56;100.00;100785.31;5011388;28;20041;-40
2022/09/30 04:37:12;;;;;;;30.23;14.20;;;;;;;7.53;100.00;100788.34;5010353;28;20019;-41
2022/09/30 04:39:38;;;;;;;32.45;15.05;;;;;;;7.54;100.00;100798.03;5007249;28;20023;-39
2022/09/30 04:42:03;;;;;;;33.15;16.00;;;;;;;7.55;100.00;100798.88;5009629;28;20090;-40
2022/09/30 04:44:29;;;;;;;31.60;16.00;;;;;;;7.55;100.00;100799.69;5009557;28;20072;-40
2022/09/30 04:46:54;;;;;;;34.92;16.17;;;;;;;7.54;100.00;100802.56;5011161;28;20034;-39
2022/09/30 04:49:20;;;;;;;31.58;15.75;;;;;;;7.55;100.00;100804.22;5010052;28;20010;-40
2022/09/30 04:51:45;;;;;;;37.00;16.23;;;;;;;7.55;100.00;100799.69;5011957;28;20124;-39
2022/09/30 04:54:11;;;;;;;38.53;15.85;;;;;;;7.56;100.00;100809.44;5016295;28;20030;-40
2022/09/30 04:56:37;;;;;;;34.08;16.83;;;;;;;7.55;100.00;100806.91;5016447;28;20015;-38
2022/09/30 04:59:02;;;;;;;39.55;17.50;;;;;;;7.54;100.00;100810.59;5016862;28;20037;-37
2022/09/30 05:01:27;;;;;;;38.13;17.45;;;;;;;7.53;100.00;100809.75;5016331;28;20018;-39
2022/09/30 05:03:53;;;;;;;39.65;18.92;;;;;;;7.54;100.00;100810.59;5016473;28;20037;-39
2022/09/30 05:06:19;;;;;;;42.58;20.20;;;;;;;7.55;100.00;100814.94;4986371;28;20037;-40
2022/09/30 05:08:45;;;;;;;41.22;20.83;;;;;;;7.56;100.00;100820.13;4997348;28;20070;-40
2022/09/30 05:11:16;;;;;;;40.80;19.80;;;;;;;7.58;100.00;100817.28;5005306;28;20039;-40
2022/09/30 05:13:42;;;;;;;42.55;21.05;;;;;;;7.57;100.00;100827.16;5009465;28;20030;-40
2022/09/30 05:16:08;;;;;;;49.85;21.80;;;;;;;7.59;100.00;100824.34;5011533;28;20049;-40
2022/09/30 05:18:34;;;;;;;50.22;22.48;;;;;;;7.58;100.00;100820.81;4980249;28;20023;-39
2022/09/30 05:20:59;;;;;;;45.78;23.02;;;;;;;7.57;100.00;100826.31;5011719;28;20206;-40
2022/09/30 05:23:27;;;;;;;48.08;22.13;;;;;;;7.56;100.00;100820.13;5015291;28;20057;-39
2022/09/30 05:25:52;;;;;;;52.00;23.30;;;;;;;7.57;100.00;100826.31;5016337;28;20061;-39
2022/09/30 05:28:18;;;;;;;48.70;21.27;;;;;;;7.59;100.00;100818.97;5016265;28;20023;-41
2022/09/30 05:30:44;;;;;;;51.17;22.48;;;;;;;7.60;100.00;100820.66;5016440;28;20030;-40
2022/09/30 05:33:11;;;;;;;46.92;23.05;;;;;;;7.60;100.00;100821.47;5015961;28;20019;-39
2022/09/30 05:35:38;;;;;;;54.05;23.83;;;;;;;7.60;100.00;100821.47;5016062;28;20038;-39
2022/09/30 05:38:03;;;;;;;54.53;23.90;;;;;;;7.60;100.00;100821.47;4998744;28;20031;-40
2022/09/30 05:40:30;;;;;;;56.65;24.55;;;;;;;7.62;100.00;100829.34;5015896;28;20586;-40
2022/09/30 05:42:56;;;;;;;57.28;23.92;;;;;;;7.65;100.00;100829.84;5015725;28;20096;-40
2022/09/30 05:45:22;;;;;;;51.35;25.02;;;;;;;7.75;100.00;100831.56;5016230;28;20048;-39
2022/09/30 05:47:54;;;;;;;53.60;25.75;;;;;;;7.83;100.00;100821.69;5016064;28;20018;-40
2022/09/30 05:50:21;;;;;;;49.78;23.65;;;;;;;7.90;100.00;100824.56;5015673;28;20049;-40
2022/09/30 05:52:46;;;;;;;55.03;24.85;;;;;;;7.98;100.00;100823.72;5015252;28;20034;-40
2022/09/30 05:55:12;;;;;;;55.42;25.58;;;;;;;8.07;100.00;100815.53;5015868;28;20061;-39
2022/09/30 05:57:38;;;;;;;54.95;25.33;;;;;;;8.13;100.00;100817.53;5015520;28;20030;-41
2022/09/30 06:00:04;;;;;;;65.97;28.60;;;;;;;8.30;100.00;100817.56;5015510;28;20104;-40
2022/09/30 06:02:30;;;;;;;60.28;29.00;;;;;;;8.40;100.00;100818.28;5014738;28;20021;-40
2022/09/30 06:04:55;;;;;;;66.82;31.10;;;;;;;8.60;100.00;100823.28;5013600;28;20081;-40
2022/09/30 06:07:20;;;;;;;73.18;31.40;;;;;;;8.68;100.00;100823.25;5015228;28;20045;-39
2022/09/30 06:09:46;;;;;;;80.43;32.50;;;;;;;8.77;100.00;100820.41;5015081;28;20078;-39
2022/09/30 06:12:11;;;;;;;67.78;30.77;;;;;;;8.87;100.00;100827.41;5015227;28;20030;-39
2022/09/30 06:14:37;;;;;;;72.05;32.50;;;;;;;8.94;100.00;100834.63;5014058;28;20026;-40
2022/09/30 06:17:04;;;;;;;61.85;30.30;;;;;;;9.02;100.00;100837.28;5015295;28;20061;-39
2022/09/30 06:19:29;;;;;;;73.60;32.10;;;;;;;9.14;100.00;100840.44;5015311;28;20042;-37
2022/09/30 06:21:56;;;;;;;72.20;33.03;;;;;;;9.24;100.00;100837.53;5015464;28;20018;-40
2022/09/30 06:24:21;;;;;;;62.20;30.67;;;;;;;9.38;100.00;100842.19;5015258;28;20038;-39
2022/09/30 06:26:46;;;;;;;67.03;31.20;;;;;;;9.65;100.00;100843.56;5015280;28;20174;-39
2022/09/30 06:29:12;;;;;;;64.20;30.60;;;;;;;9.86;100.00;100847.50;5015294;28;20050;-40
2022/09/30 06:31:38;;;;;;;62.88;27.83;;;;;;;9.95;100.00;100856.34;5015316;28;20026;-40
2022/09/30 06:34:04;;;;;;;60.63;27.23;;;;;;;10.03;100.00;100861.66;5015418;28;20085;-39
2022/09/30 06:36:30;;;;;;;56.20;27.15;;;;;;;10.06;100.00;100859.47;5015025;28;20048;-39
2022/09/30 06:38:56;;;;;;;61.08;26.15;;;;;;;10.16;100.00;100859.22;4997732;28;20030;-40
2022/09/30 06:41:26;;;;;;;53.60;25.92;;;;;;;10.21;100.00;100862.22;5006522;28;20046;-40
2022/09/30 06:43:51;;;;;;;58.03;26.20;;;;;;;10.19;100.00;100858.91;4988558;28;20094;-41
2022/09/30 06:46:17;;;;;;;50.90;25.08;;;;;;;10.18;100.00;100857.22;5004534;28;20034;-40
2022/09/30 06:48:42;;;;;;;52.08;25.50;;;;;;;10.17;100.00;100855.53;5006132;28;20026;-41
2022/09/30 06:51:09;;;;;;;47.08;24.83;;;;;;;10.19;100.00;100858.03;5004094;28;20021;-41
2022/09/30 06:53:36;;;;;;;60.38;26.02;;;;;;;10.18;100.00;100851.81;5004170;28;20015;-41
2022/09/30 06:56:01;;;;;;;48.28;25.40;;;;;;;10.25;100.00;100858.16;5004138;28;20010;-40
2022/09/30 06:58:26;;;;;;;50.65;24.25;;;;;;;10.26;100.00;100845.56;5006123;28;20097;-41
2022/09/30 07:01:00;;;;;;;45.45;24.20;;;;;;;10.27;100.00;100850.78;5001769;28;20058;-40
2022/09/30 07:03:28;;;;;;;47.60;21.48;;;;;;;10.26;100.00;100854.44;5003932;28;20253;-41
2022/09/30 07:05:56;;;;;;;;;;;;;;;10.28;100.00;100852.47;5007761;28;20011;-40
2022/09/30 07:08:21;;;;;;;;;;;;;;;10.32;100.00;100852.94;5009946;28;19910;-40
2022/09/30 07:10:46;;;;;;;46.78;21.83;;;;;;;10.41;100.00;100851.03;5007543;28;19917;-40
2022/09/30 07:13:13;;;;;;;34.17;17.67;;;;;;;10.55;100.00;100847.53;5008573;28;20074;-41
2022/09/30 07:15:41;;;;;;;38.83;18.95;;;;;;;10.71;100.00;100852.75;5009437;28;20023;-40
2022/09/30 07:18:07;;;;;;;44.42;20.38;;;;;;;10.95;100.00;100845.47;5007600;28;20030;-41
2022/09/30 07:20:32;;;;;;;41.40;19.80;;;;;;;11.29;100.00;100844.91;5008777;28;20040;-38
2022/09/30 07:22:58;;;;;;;33.25;17.08;;;;;;;12.00;100.00;100841.66;5009204;28;20023;-40
2022/09/30 07:25:24;;;;;;;31.80;14.13;;;;;;;13.29;100.00;100836.88;5007481;28;20015;-40
2022/09/30 07:27:50;;;;;;;22.55;10.23;;;;;;;14.30;90.66;100833.47;5009237;28;20304;-41
2022/09/30 07:30:15;;;;;;;16.33;9.30;;;;;;;15.19;82.00;100839.47;5008574;28;20037;-41
2022/09/30 07:32:40;;;;;;;14.27;8.30;;;;;;;15.93;76.90;100822.72;5007764;28;20031;-43
2022/09/30 07:35:06;;;;;;;16.58;6.47;;;;;;;16.92;74.02;100824.91;5010371;28;20022;-40
2022/09/30 07:37:34;;;;;;;13.65;6.13;;;;;;;17.39;69.05;100827.97;5008693;28;20025;-43
2022/09/30 07:40:01;;;;;;;15.25;5.85;;;;;;;18.18;66.98;100826.91;5009148;28;20026;-41
2022/09/30 07:42:26;;;;;;;12.43;5.87;;;;;;;18.73;64.55;100828.56;5006899;28;20111;-40
2022/09/30 07:44:52;;;;;;;11.20;5.28;;;;;;;18.60;62.13;100828.78;5007101;28;20031;-41
2022/09/30 07:47:18;;;;;;;13.02;5.13;;;;;;;18.61;62.02;100833.97;5007187;28;20033;-40
2022/09/30 07:49:44;;;;;;;14.20;4.82;;;;;;;18.22;62.95;100827.31;5009808;28;20014;-40
2022/09/30 07:52:11;;;;;;;10.18;5.05;;;;;;;17.72;63.94;100836.56;5009065;28;20066;-40
2022/09/30 07:54:36;;;;;;;8.90;4.65;;;;;;;17.53;65.18;100833.00;5008273;28;20027;-40
2022/09/30 07:57:02;;;;;;;10.75;5.03;;;;;;;17.97;65.39;100838.34;5006745;28;20043;-41
2022/09/30 07:59:29;;;;;;;7.05;4.97;;;;;;;18.24;63.16;100832.50;5009986;28;20025;-39
2022/09/30 08:01:55;;;;;;;12.50;5.07;;;;;;;18.33;64.70;100836.56;5009531;28;20038;-39
2022/09/30 08:04:22;;;;;;;18.52;5.47;;;;;;;18.76;63.02;100827.28;4985157;28;20030;-41
2022/09/30 08:06:49;;;;;;;14.00;6.25;;;;;;;18.34;63.53;100832.75;4983395;28;20061;-40
2022/09/30 08:09:17;;;;;;;10.98;5.38;;;;;;;18.55;61.49;100829.47;4982897;28;20038;-41
2022/09/30 08:11:43;;;;;;;15.57;5.80;;;;;;;18.92;60.82;100832.00;4982731;28;20118;-40
2022/09/30 08:14:17;;;;;;;13.65;5.80;;;;;;;18.15;63.00;100821.94;4983569;28;20081;-40
2022/09/30 08:16:42;;;;;;;12.02;5.72;;;;;;;18.54;60.95;100827.81;4982284;28;20474;-40
2022/09/30 08:19:12;;;;;;;10.60;4.60;;;;;;;18.11;63.08;100828.91;4983457;28;20037;-40
2022/09/30 08:21:38;;;;;;;13.45;5.20;;;;;;;17.86;64.13;100825.50;4966975;28;20065;-40
2022/09/30 08:24:03;;;;;;;9.80;4.90;;;;;;;18.59;63.83;100829.84;4981754;28;20054;-40
2022/09/30 08:26:29;;;;;;;9.50;4.30;;;;;;;19.26;61.91;100829.50;4983194;28;20110;-41
2022/09/30 08:28:54;;;;;;;8.88;4.68;;;;;;;19.67;58.85;100827.66;4981770;28;20413;-41
2022/09/30 08:31:21;;;;;;;12.18;5.05;;;;;;;19.14;59.56;100828.69;4984023;28;20040;-41
2022/09/30 08:33:47;;;;;;;8.50;4.10;;;;;;;19.16;60.79;100824.63;4982109;28;20077;-41
2022/09/30 08:36:22;;;;;;;12.00;4.50;;;;;;;19.44;59.33;100832.06;4982705;28;20022;-41
2022/09/30 08:38:47;;;;;;;10.13;4.30;;;;;;;20.01;58.22;100825.84;4982778;28;20142;-40
2022/09/30 08:41:31;;;;;;;7.50;3.70;;;;;;;19.94;57.50;100826.00;4982460;28;20457;-41
2022/09/30 08:44:18;;;;;;;11.98;3.65;;;;;;;19.02;58.92;100832.25;4987583;28;20058;-42
2022/09/30 08:46:49;;;;;;;4.72;3.40;;;;;;;19.38;57.74;100837.66;4982663;28;20031;-41
2022/09/30 08:49:56;;;;;;;7.40;4.03;;;;;;;19.23;57.90;100827.25;4982342;28;20036;-41
2022/09/30 08:52:25;;;;;;;9.25;4.40;;;;;;;18.94;59.13;100838.06;4943044;28;20096;-41
2022/09/30 08:54:52;;;;;;;12.90;3.75;;;;;;;19.08;58.63;100836.75;4982546;28;20158;-41
2022/09/30 08:57:19;;;;;;;5.47;3.40;;;;;;;18.90;57.75;100836.88;4963392;28;20026;-41
2022/09/30 08:59:54;;;;;;;8.50;3.30;;;;;;;18.08;60.41;100834.81;4982308;28;20025;-41
2022/09/30 09:02:31;;;;;;;8.95;3.08;;;;;;;17.44;62.93;100822.66;4965439;28;20026;-42
2022/09/30 09:04:57;;;;;;;;;;;;;;;17.53;63.89;100826.72;4966062;28;20026;-41
2022/09/30 09:07:35;;;;;;;5.63;2.42;;;;;;;17.30;64.29;100828.28;4963607;28;19925;-41
2022/09/30 09:10:40;;;;;;;9.63;2.47;;;;;;;17.05;65.22;100835.66;4980768;28;20478;-41
2022/09/30 09:13:33;;;;;;;6.40;2.20;;;;;;;17.20;65.92;100833.41;4983351;28;20027;-41
2022/09/30 09:16:04;;;;;;;4.50;2.10;;;;;;;17.06;65.26;100838.16;4973015;28;20397;-41
2022/09/30 09:18:40;;;;;;;9.65;1.90;;;;;;;17.01;65.81;100828.97;4954990;28;20070;-40
2022/09/30 09:21:31;;;;;;;8.30;2.13;;;;;;;16.87;65.98;100837.28;4972548;28;20062;-40
2022/09/30 09:24:01;;;;;;;5.10;2.30;;;;;;;16.54;66.70;100832.13;4953367;28;20121;-40
2022/09/30 09:26:29;;;;;;;8.68;3.13;;;;;;;16.43;67.47;100828.25;4970597;28;20089;-40
2022/09/30 09:29:13;;;;;;;5.95;2.42;;;;;;;16.29;68.34;100834.81;4953842;28;20401;-40
2022/09/30 09:31:38;;;;;;;5.82;2.60;;;;;;;16.20;68.64;100833.41;4971913;28;20030;-39
2022/09/30 09:34:12;;;;;;;3.10;1.80;;;;;;;16.25;68.71;100847.19;4971846;28;20026;-39
2022/09/30 09:37:05;;;;;;;7.32;1.80;;;;;;;15.97;69.66;100855.69;4972169;28;20039;-39
2022/09/30 09:39:52;;;;;;;6.75;2.00;;;;;;;15.96;69.79;100852.16;4971755;28;20027;-41
2022/09/30 09:42:40;;;;;;;6.38;1.50;;;;;;;15.59;69.84;100842.91;4972216;28;20050;-40
2022/09/30 09:45:33;;;;;;;3.55;1.90;;;;;;;15.76;71.27;100849.53;4971896;28;20041;-41
2022/09/30 09:47:59;;;;;;;4.72;2.20;;;;;;;15.78;69.09;100862.88;4971776;28;20069;-40
2022/09/30 09:50:28;;;;;;;5.40;2.13;;;;;;;15.70;68.80;100852.28;4971817;28;20033;-40
2022/09/30 09:53:15;;;;;;;4.90;1.60;;;;;;;15.75;68.66;100842.44;4971825;28;20093;-39
2022/09/30 09:55:41;;;;;;;5.78;1.40;;;;;;;15.65;68.11;100841.22;4971739;28;20019;-40
2022/09/30 09:58:16;;;;;;;4.32;1.77;;;;;;;15.66;69.07;100842.88;4971355;28;20105;-42
2022/09/30 10:03:08;;;;;;;4.72;1.50;;;;;;;15.76;69.83;100832.41;4954204;28;20062;-40
2022/09/30 10:05:40;;;;;;;2.17;1.40;;;;;;;15.76;69.30;100837.84;4971300;28;20030;-40
2022/09/30 10:08:12;;;;;;;2.78;1.33;;;;;;;15.67;70.32;100852.69;4971434;28;20077;-40
2022/09/30 10:10:47;;;;;;;9.35;2.35;;;;;;;15.77;70.98;100840.34;4954043;28;20482;-40
2022/09/30 10:13:18;;;;;;;6.90;1.50;;;;;;;15.98;71.63;100828.34;4971780;28;20084;-40
2022/09/30 10:15:44;;;;;;;2.55;1.75;;;;;;;16.07;71.55;100833.50;4971517;28;20076;-41
2022/09/30 10:18:21;;;;;;;4.03;1.75;;;;;;;16.30;70.57;100839.19;4971256;28;20030;-40
2022/09/30 10:20:53;;;;;;;3.53;1.70;;;;;;;16.57;70.09;100833.56;4954347;28;20041;-40
2022/09/30 10:23:24;;;;;;;5.97;2.67;;;;;;;16.46;69.35;100830.50;4971310;28;20065;-40
2022/09/30 10:26:12;;;;;;;9.20;1.95;;;;;;;16.48;68.79;100829.44;4953975;28;20545;-40
2022/09/30 10:28:54;;;;;;;3.05;1.40;;;;;;;16.46;68.20;100826.97;4971687;28;20027;-41
2022/09/30 10:31:32;;;;;;;3.15;1.23;;;;;;;16.64;66.19;100827.03;4971113;28;20054;-41
2022/09/30 10:34:16;;;;;;;4.30;1.40;;;;;;;16.68;64.86;100840.97;4954067;28;20066;-40
2022/09/30 10:36:43;;;;;;;4.57;1.40;;;;;;;16.65;65.45;100836.81;4954004;28;20031;-40
2022/09/30 10:39:24;;;;;;;6.82;1.77;;;;;;;16.49;65.74;100831.13;4971375;28;20109;-40
2022/09/30 10:42:20;;;;;;;1.85;0.90;;;;;;;16.31;63.50;100838.13;4958344;28;20121;-40
2022/09/30 10:44:48;;;;;;;2.60;1.23;;;;;;;16.26;63.66;100835.25;4957674;28;20679;-41
2022/09/30 10:47:18;;;;;;;4.95;1.85;;;;;;;15.92;65.52;100831.09;4957719;28;20026;-41
2022/09/30 10:50:04;;;;;;;6.45;1.90;;;;;;;15.85;67.14;100833.00;4957390;28;20429;-41
2022/09/30 10:52:46;;;;;;;6.50;2.30;;;;;;;15.88;67.18;100824.44;4974794;28;20035;-41
2022/09/30 10:55:17;;;;;;;4.32;2.83;;;;;;;15.78;66.56;100820.28;4958220;28;20041;-41
2022/09/30 10:57:43;;;;;;;10.48;3.13;;;;;;;15.84;67.97;100818.59;4974965;28;20221;-41
2022/09/30 11:00:24;;;;;;;7.05;3.65;;;;;;;15.86;67.19;100816.50;4974809;28;20113;-39
2022/09/30 11:03:04;;;;;;;10.48;3.92;;;;;;;16.15;67.49;100825.09;4957842;28;20029;-40
2022/09/30 11:05:35;;;;;;;6.22;3.95;;;;;;;16.20;66.52;100812.53;4957489;28;20113;-40
2022/09/30 11:08:13;;;;;;;8.20;3.67;;;;;;;16.47;66.68;100809.59;4957295;28;20043;-41
2022/09/30 11:10:57;;;;;;;12.82;4.25;;;;;;;16.40;66.41;100804.25;4974419;28;20105;-41
2022/09/30 11:13:36;;;;;;;10.02;4.10;;;;;;;16.36;66.38;100805.72;4974789;28;20574;-41
2022/09/30 11:16:07;;;;;;;6.32;4.15;;;;;;;16.31;67.21;100802.00;4962930;28;20045;-39
2022/09/30 11:18:53;;;;;;;4.35;3.30;;;;;;;16.35;66.60;100808.66;4992919;28;20050;-40
2022/09/30 11:21:24;;;;;;;6.82;3.25;;;;;;;16.46;65.41;100802.53;4975991;28;20034;-40
2022/09/30 11:24:00;;;;;;;6.25;3.53;;;;;;;16.71;63.87;100805.22;4976042;28;20053;-40
2022/09/30 11:27:12;;;;;;;8.25;3.65;;;;;;;16.77;64.73;100795.31;4975645;28;20481;-40
2022/09/30 11:29:47;;;;;;;8.93;3.75;;;;;;;17.11;63.88;100796.66;4976164;28;20409;-40
2022/09/30 11:32:31;;;;;;;7.05;3.90;;;;;;;16.81;63.80;100797.41;4978763;28;20034;-40
2022/09/30 11:35:07;;;;;;;9.45;3.70;;;;;;;17.22;65.48;100787.78;4993838;28;20030;-41
2022/09/30 11:37:57;;;;;;;4.93;3.10;;;;;;;17.31;64.50;100780.13;4987358;28;20030;-40
2022/09/30 11:40:34;;;;;;;8.05;3.25;;;;;;;17.20;62.54;100789.06;4975943;28;20045;-40